sensor_id;sensor_type;location;lat;lon;timestamp;pressure;altitude;pressure_sealevel;temperature;humidity
22605;BME280;11469;49.024;8.246;2023-05-25T00:02:17;100876.56;;;10.59;73.11
22605;BME280;11469;49.024;8.246;2023-05-25T00:04:43;100870.84;;;10.56;73.27
22605;BME280;11469;49.024;8.246;2023-05-25T00:07:13;100871.66;;;10.56;73.39
22605;BME280;11469;49.024;8.246;2023-05-25T00:09:40;100869.66;;;10.57;72.86
22605;BME280;11469;49.024;8.246;2023-05-25T00:12:06;100863.81;;;10.50;73.61
22605;BME280;11469;49.024;8.246;2023-05-25T00:14:31;100874.25;;;10.37;74.13
22605;BME280;11469;49.024;8.246;2023-05-25T00:16:56;100872.94;;;10.35;75.08
22605;BME280;11469;49.024;8.246;2023-05-25T00:19:22;100870.47;;;10.21;74.97
22605;BME280;11469;49.024;8.246;2023-05-25T00:21:49;100866.44;;;10.10;76.21
22605;BME280;11469;49.024;8.246;2023-05-25T00:24:15;100873.13;;;10.17;76.49
22605;BME280;11469;49.024;8.246;2023-05-25T00:26:41;100868.69;;;10.16;77.41
22605;BME280;11469;49.024;8.246;2023-05-25T00:29:06;100876.00;;;10.09;77.18
22605;BME280;11469;49.024;8.246;2023-05-25T00:31:32;100874.25;;;10.04;77.15
22605;BME280;11469;49.024;8.246;2023-05-25T00:33:59;100872.28;;;10.05;77.08
22605;BME280;11469;49.024;8.246;2023-05-25T00:36:24;100866.28;;;9.94;77.65
22605;BME280;11469;49.024;8.246;2023-05-25T00:38:50;100861.63;;;9.98;77.49
22605;BME280;11469;49.024;8.246;2023-05-25T00:41:18;100861.16;;;9.96;78.28
22605;BME280;11469;49.024;8.246;2023-05-25T00:43:44;100854.88;;;9.99;78.36
22605;BME280;11469;49.024;8.246;2023-05-25T00:46:15;100856.38;;;9.96;78.33
22605;BME280;11469;49.024;8.246;2023-05-25T00:48:41;100859.88;;;9.93;78.03
22605;BME280;11469;49.024;8.246;2023-05-25T00:51:08;100858.97;;;9.89;78.73
22605;BME280;11469;49.024;8.246;2023-05-25T00:53:35;100861.63;;;9.86;78.62
22605;BME280;11469;49.024;8.246;2023-05-25T00:56:02;100859.53;;;9.83;79.22
22605;BME280;11469;49.024;8.246;2023-05-25T00:58:33;100861.03;;;9.80;79.13
22605;BME280;11469;49.024;8.246;2023-05-25T01:01:00;100865.22;;;9.74;79.09
22605;BME280;11469;49.024;8.246;2023-05-25T01:03:30;100861.13;;;9.72;79.38
22605;BME280;11469;49.024;8.246;2023-05-25T01:05:58;100861.19;;;9.63;80.85
22605;BME280;11469;49.024;8.246;2023-05-25T01:08:26;100881.13;;;9.61;80.75
22605;BME280;11469;49.024;8.246;2023-05-25T01:10:54;100876.97;;;9.47;81.67
22605;BME280;11469;49.024;8.246;2023-05-25T01:13:21;100870.00;;;9.53;81.79
22605;BME280;11469;49.024;8.246;2023-05-25T01:15:47;100865.91;;;9.50;81.57
22605;BME280;11469;49.024;8.246;2023-05-25T01:18:14;100860.19;;;9.47;82.09
22605;BME280;11469;49.024;8.246;2023-05-25T01:23:32;100869.88;;;9.49;81.95
22605;BME280;11469;49.024;8.246;2023-05-25T01:26:00;100865.78;;;9.47;82.61
22605;BME280;11469;49.024;8.246;2023-05-25T01:28:29;100866.38;;;9.40;82.11
22605;BME280;11469;49.024;8.246;2023-05-25T01:30:58;100871.84;;;9.49;82.48
22605;BME280;11469;49.024;8.246;2023-05-25T01:33:25;100867.44;;;9.48;82.72
22605;BME280;11469;49.024;8.246;2023-05-25T01:36:10;100875.72;;;9.44;82.85
22605;BME280;11469;49.024;8.246;2023-05-25T01:38:36;100882.13;;;9.45;82.74
22605;BME280;11469;49.024;8.246;2023-05-25T01:41:01;100874.28;;;9.38;83.54
22605;BME280;11469;49.024;8.246;2023-05-25T01:43:26;100885.81;;;9.37;83.92
22605;BME280;11469;49.024;8.246;2023-05-25T01:45:57;100879.59;;;9.31;84.30
22605;BME280;11469;49.024;8.246;2023-05-25T01:48:39;100883.09;;;9.28;84.68
22605;BME280;11469;49.024;8.246;2023-05-25T01:51:24;100877.91;;;9.18;84.34
22605;BME280;11469;49.024;8.246;2023-05-25T01:53:57;100878.16;;;9.25;85.16
22605;BME280;11469;49.024;8.246;2023-05-25T01:56:26;100878.91;;;9.13;85.79
22605;BME280;11469;49.024;8.246;2023-05-25T01:58:54;100877.75;;;9.14;85.73
22605;BME280;11469;49.024;8.246;2023-05-25T02:01:22;100891.13;;;9.09;85.51
22605;BME280;11469;49.024;8.246;2023-05-25T02:03:48;100877.00;;;9.05;85.84
22605;BME280;11469;49.024;8.246;2023-05-25T02:06:15;100886.34;;;9.09;85.70
22605;BME280;11469;49.024;8.246;2023-05-25T02:08:40;100862.00;;;9.10;85.98
22605;BME280;11469;49.024;8.246;2023-05-25T02:11:08;100875.97;;;9.10;85.74
22605;BME280;11469;49.024;8.246;2023-05-25T02:13:33;100877.97;;;9.09;85.56
22605;BME280;11469;49.024;8.246;2023-05-25T02:15:58;100885.66;;;9.12;85.95
22605;BME280;11469;49.024;8.246;2023-05-25T02:18:24;100874.81;;;9.11;85.93
22605;BME280;11469;49.024;8.246;2023-05-25T02:20:50;100882.13;;;9.03;86.12
22605;BME280;11469;49.024;8.246;2023-05-25T02:23:15;100878.16;;;9.04;85.95
22605;BME280;11469;49.024;8.246;2023-05-25T02:25:43;100881.53;;;8.97;87.04
22605;BME280;11469;49.024;8.246;2023-05-25T02:28:08;100877.28;;;8.91;87.00
22605;BME280;11469;49.024;8.246;2023-05-25T02:30:33;100877.75;;;8.93;87.03
22605;BME280;11469;49.024;8.246;2023-05-25T02:32:59;100871.06;;;8.86;87.78
22605;BME280;11469;49.024;8.246;2023-05-25T02:35:26;100879.16;;;8.99;87.62
22605;BME280;11469;49.024;8.246;2023-05-25T02:37:52;100871.84;;;8.95;87.81
22605;BME280;11469;49.024;8.246;2023-05-25T02:40:17;100870.06;;;8.90;88.00
22605;BME280;11469;49.024;8.246;2023-05-25T02:42:43;100872.41;;;8.80;88.84
22605;BME280;11469;49.024;8.246;2023-05-25T02:45:08;100870.94;;;8.82;89.30
22605;BME280;11469;49.024;8.246;2023-05-25T02:47:37;100860.41;;;8.79;89.13
22605;BME280;11469;49.024;8.246;2023-05-25T02:50:03;100861.25;;;8.80;89.47
22605;BME280;11469;49.024;8.246;2023-05-25T02:52:29;100869.63;;;8.80;90.05
22605;BME280;11469;49.024;8.246;2023-05-25T02:54:55;100867.97;;;8.79;89.85
22605;BME280;11469;49.024;8.246;2023-05-25T02:57:21;100874.72;;;8.78;90.25
22605;BME280;11469;49.024;8.246;2023-05-25T02:59:47;100875.75;;;8.73;90.72
22605;BME280;11469;49.024;8.246;2023-05-25T03:02:13;100869.47;;;8.76;90.73
22605;BME280;11469;49.024;8.246;2023-05-25T03:04:39;100872.13;;;8.73;91.11
22605;BME280;11469;49.024;8.246;2023-05-25T03:07:06;100874.09;;;8.72;91.20
22605;BME280;11469;49.024;8.246;2023-05-25T03:09:31;100874.94;;;8.73;91.67
22605;BME280;11469;49.024;8.246;2023-05-25T03:11:56;100868.56;;;8.63;92.64
22605;BME280;11469;49.024;8.246;2023-05-25T03:14:22;100873.47;;;8.67;92.09
22605;BME280;11469;49.024;8.246;2023-05-25T03:16:47;100876.41;;;8.70;92.30
22605;BME280;11469;49.024;8.246;2023-05-25T03:19:12;100884.31;;;8.68;92.65
22605;BME280;11469;49.024;8.246;2023-05-25T03:21:38;100890.25;;;8.67;92.42
22605;BME280;11469;49.024;8.246;2023-05-25T03:24:03;100890.72;;;8.69;92.62
22605;BME280;11469;49.024;8.246;2023-05-25T03:26:29;100892.03;;;8.71;92.89
22605;BME280;11469;49.024;8.246;2023-05-25T03:28:56;100894.34;;;8.69;92.41
22605;BME280;11469;49.024;8.246;2023-05-25T03:31:22;100895.97;;;8.70;92.86
22605;BME280;11469;49.024;8.246;2023-05-25T03:33:48;100903.72;;;8.64;93.10
22605;BME280;11469;49.024;8.246;2023-05-25T03:36:14;100898.47;;;8.63;93.78
22605;BME280;11469;49.024;8.246;2023-05-25T03:38:42;100902.09;;;8.63;93.73
22605;BME280;11469;49.024;8.246;2023-05-25T03:41:07;100902.56;;;8.65;93.74
22605;BME280;11469;49.024;8.246;2023-05-25T03:43:33;100905.53;;;8.69;93.57
22605;BME280;11469;49.024;8.246;2023-05-25T03:45:58;100907.16;;;8.70;93.90
22605;BME280;11469;49.024;8.246;2023-05-25T03:48:23;100907.53;;;8.60;94.33
22605;BME280;11469;49.024;8.246;2023-05-25T03:50:49;100917.56;;;8.61;94.41
22605;BME280;11469;49.024;8.246;2023-05-25T03:53:14;100918.38;;;8.61;94.56
22605;BME280;11469;49.024;8.246;2023-05-25T03:55:40;100916.06;;;8.63;94.42
22605;BME280;11469;49.024;8.246;2023-05-25T03:58:06;100912.44;;;8.63;94.96
22605;BME280;11469;49.024;8.246;2023-05-25T04:00:34;100916.88;;;8.64;94.84
22605;BME280;11469;49.024;8.246;2023-05-25T04:03:00;100911.09;;;8.69;95.24
22605;BME280;11469;49.024;8.246;2023-05-25T04:05:25;100910.09;;;8.74;94.52
22605;BME280;11469;49.024;8.246;2023-05-25T04:07:50;100905.81;;;8.76;94.71
22605;BME280;11469;49.024;8.246;2023-05-25T04:10:16;100913.81;;;8.86;94.15
22605;BME280;11469;49.024;8.246;2023-05-25T04:12:41;100909.66;;;8.92;94.13
22605;BME280;11469;49.024;8.246;2023-05-25T04:15:07;100920.78;;;9.01;93.78
22605;BME280;11469;49.024;8.246;2023-05-25T04:17:34;100918.59;;;9.07;93.32
22605;BME280;11469;49.024;8.246;2023-05-25T04:20:00;100917.59;;;9.11;93.13
22605;BME280;11469;49.024;8.246;2023-05-25T04:22:26;100923.81;;;9.17;92.37
22605;BME280;11469;49.024;8.246;2023-05-25T04:24:52;100922.16;;;9.16;92.99
22605;BME280;11469;49.024;8.246;2023-05-25T04:27:18;100929.53;;;9.20;92.46
22605;BME280;11469;49.024;8.246;2023-05-25T04:29:45;100929.47;;;9.29;92.52
22605;BME280;11469;49.024;8.246;2023-05-25T04:32:10;100929.06;;;9.39;92.01
22605;BME280;11469;49.024;8.246;2023-05-25T04:34:38;100929.06;;;9.39;92.13
22605;BME280;11469;49.024;8.246;2023-05-25T04:37:06;100929.13;;;9.30;92.81
22605;BME280;11469;49.024;8.246;2023-05-25T04:39:33;100930.47;;;9.45;92.20
22605;BME280;11469;49.024;8.246;2023-05-25T04:41:58;100936.75;;;9.63;91.30
22605;BME280;11469;49.024;8.246;2023-05-25T04:44:29;100938.19;;;9.48;91.10
22605;BME280;11469;49.024;8.246;2023-05-25T04:46:54;100940.25;;;9.60;90.66
22605;BME280;11469;49.024;8.246;2023-05-25T04:49:20;100941.53;;;9.62;90.78
22605;BME280;11469;49.024;8.246;2023-05-25T04:51:45;100945.16;;;9.63;91.10
22605;BME280;11469;49.024;8.246;2023-05-25T04:54:11;100948.72;;;9.72;90.34
22605;BME280;11469;49.024;8.246;2023-05-25T04:56:36;100947.81;;;9.59;91.19
22605;BME280;11469;49.024;8.246;2023-05-25T04:59:01;100946.25;;;9.71;90.79
22605;BME280;11469;49.024;8.246;2023-05-25T05:01:29;100960.94;;;9.68;90.43
22605;BME280;11469;49.024;8.246;2023-05-25T05:03:55;100950.00;;;9.75;90.92
22605;BME280;11469;49.024;8.246;2023-05-25T05:06:21;100961.69;;;9.77;90.30
22605;BME280;11469;49.024;8.246;2023-05-25T05:08:46;100951.28;;;9.77;89.93
22605;BME280;11469;49.024;8.246;2023-05-25T05:11:12;100954.72;;;9.83;89.09
22605;BME280;11469;49.024;8.246;2023-05-25T05:13:37;100944.47;;;9.99;89.60
22605;BME280;11469;49.024;8.246;2023-05-25T05:16:03;100949.38;;;10.02;88.49
22605;BME280;11469;49.024;8.246;2023-05-25T05:18:28;100954.56;;;10.12;87.49
22605;BME280;11469;49.024;8.246;2023-05-25T05:20:53;100955.97;;;10.39;86.98
22605;BME280;11469;49.024;8.246;2023-05-25T05:23:19;100961.44;;;10.48;85.74
22605;BME280;11469;49.024;8.246;2023-05-25T05:25:44;100958.34;;;10.86;84.89
22605;BME280;11469;49.024;8.246;2023-05-25T05:28:10;100961.38;;;10.69;84.41
22605;BME280;11469;49.024;8.246;2023-05-25T05:30:36;100975.16;;;10.98;82.81
22605;BME280;11469;49.024;8.246;2023-05-25T05:33:01;100973.97;;;11.23;81.83
22605;BME280;11469;49.024;8.246;2023-05-25T05:35:27;100963.56;;;11.12;80.65
22605;BME280;11469;49.024;8.246;2023-05-25T05:37:52;100973.88;;;10.95;81.45
22605;BME280;11469;49.024;8.246;2023-05-25T05:40:17;100973.41;;;11.18;80.27
22605;BME280;11469;49.024;8.246;2023-05-25T05:42:43;100976.00;;;10.86;81.18
22605;BME280;11469;49.024;8.246;2023-05-25T05:45:09;100982.03;;;11.13;80.70
22605;BME280;11469;49.024;8.246;2023-05-25T05:47:34;100977.66;;;11.40;79.17
22605;BME280;11469;49.024;8.246;2023-05-25T05:50:00;100975.34;;;11.42;78.24
22605;BME280;11469;49.024;8.246;2023-05-25T05:52:25;100981.41;;;11.56;78.75
22605;BME280;11469;49.024;8.246;2023-05-25T05:54:51;100983.09;;;11.73;76.76
22605;BME280;11469;49.024;8.246;2023-05-25T05:57:16;100987.09;;;11.72;78.33
22605;BME280;11469;49.024;8.246;2023-05-25T05:59:41;100999.47;;;11.83;76.04
22605;BME280;11469;49.024;8.246;2023-05-25T06:02:07;100994.38;;;11.60;77.28
22605;BME280;11469;49.024;8.246;2023-05-25T06:04:32;101000.22;;;11.80;76.51
22605;BME280;11469;49.024;8.246;2023-05-25T06:06:58;101003.56;;;11.85;76.14
22605;BME280;11469;49.024;8.246;2023-05-25T06:09:24;101001.47;;;11.82;76.59
22605;BME280;11469;49.024;8.246;2023-05-25T06:11:50;101003.72;;;12.05;75.39
22605;BME280;11469;49.024;8.246;2023-05-25T06:14:16;101004.44;;;12.02;75.67
22605;BME280;11469;49.024;8.246;2023-05-25T06:16:41;101016.06;;;11.88;75.87
22605;BME280;11469;49.024;8.246;2023-05-25T06:19:07;101010.53;;;12.04;75.31
22605;BME280;11469;49.024;8.246;2023-05-25T06:21:33;101011.50;;;12.23;74.54
22605;BME280;11469;49.024;8.246;2023-05-25T06:23:58;101011.59;;;12.27;73.28
22605;BME280;11469;49.024;8.246;2023-05-25T06:26:24;101017.25;;;12.43;73.29
22605;BME280;11469;49.024;8.246;2023-05-25T06:28:50;101010.91;;;12.46;74.12
22605;BME280;11469;49.024;8.246;2023-05-25T06:31:15;101020.53;;;12.76;72.68
22605;BME280;11469;49.024;8.246;2023-05-25T06:33:41;101015.13;;;12.99;71.62
22605;BME280;11469;49.024;8.246;2023-05-25T06:36:07;101016.22;;;13.10;71.04
22605;BME280;11469;49.024;8.246;2023-05-25T06:38:33;101022.56;;;13.39;69.94
22605;BME280;11469;49.024;8.246;2023-05-25T06:40:58;101016.44;;;13.52;68.82
22605;BME280;11469;49.024;8.246;2023-05-25T06:43:29;101024.78;;;13.84;67.85
22605;BME280;11469;49.024;8.246;2023-05-25T06:45:54;101030.34;;;13.45;66.81
22605;BME280;11469;49.024;8.246;2023-05-25T06:48:20;101016.94;;;12.91;67.23
22605;BME280;11469;49.024;8.246;2023-05-25T06:50:45;101016.47;;;13.05;67.37
22605;BME280;11469;49.024;8.246;2023-05-25T06:53:11;101017.25;;;13.18;67.33
22605;BME280;11469;49.024;8.246;2023-05-25T06:55:36;101014.81;;;13.51;67.38
22605;BME280;11469;49.024;8.246;2023-05-25T06:58:02;101011.16;;;13.86;65.29
22605;BME280;11469;49.024;8.246;2023-05-25T07:00:27;101022.19;;;13.75;65.86
22605;BME280;11469;49.024;8.246;2023-05-25T07:02:52;101019.28;;;13.72;66.00
22605;BME280;11469;49.024;8.246;2023-05-25T07:05:18;101019.84;;;13.97;65.66
22605;BME280;11469;49.024;8.246;2023-05-25T07:07:43;101017.22;;;13.88;65.30
22605;BME280;11469;49.024;8.246;2023-05-25T07:10:08;101015.84;;;13.98;64.97
22605;BME280;11469;49.024;8.246;2023-05-25T07:12:34;101013.16;;;14.05;64.71
22605;BME280;11469;49.024;8.246;2023-05-25T07:14:59;101007.50;;;13.85;64.69
22605;BME280;11469;49.024;8.246;2023-05-25T07:17:25;101000.16;;;13.81;64.24
22605;BME280;11469;49.024;8.246;2023-05-25T07:19:50;100995.03;;;14.25;62.97
22605;BME280;11469;49.024;8.246;2023-05-25T07:22:16;101002.34;;;14.07;63.24
22605;BME280;11469;49.024;8.246;2023-05-25T07:24:44;100998.94;;;14.17;63.10
22605;BME280;11469;49.024;8.246;2023-05-25T07:27:10;100996.66;;;14.65;62.61
22605;BME280;11469;49.024;8.246;2023-05-25T07:29:37;101006.59;;;14.81;61.09
22605;BME280;11469;49.024;8.246;2023-05-25T07:32:02;101005.72;;;14.77;62.22
22605;BME280;11469;49.024;8.246;2023-05-25T07:34:28;101005.41;;;14.82;60.83
22605;BME280;11469;49.024;8.246;2023-05-25T07:36:53;101000.97;;;14.81;60.70
22605;BME280;11469;49.024;8.246;2023-05-25T07:39:18;100997.56;;;14.72;61.23
22605;BME280;11469;49.024;8.246;2023-05-25T07:41:44;100995.69;;;14.57;60.72
22605;BME280;11469;49.024;8.246;2023-05-25T07:44:09;100994.38;;;14.74;61.74
22605;BME280;11469;49.024;8.246;2023-05-25T07:46:35;100998.69;;;14.68;61.23
22605;BME280;11469;49.024;8.246;2023-05-25T07:49:00;101010.63;;;15.03;60.50
22605;BME280;11469;49.024;8.246;2023-05-25T07:51:29;101008.38;;;14.89;61.22
22605;BME280;11469;49.024;8.246;2023-05-25T07:53:55;101012.56;;;14.99;60.38
22605;BME280;11469;49.024;8.246;2023-05-25T07:56:22;101002.59;;;15.05;60.38
22605;BME280;11469;49.024;8.246;2023-05-25T07:58:48;101000.16;;;15.04;60.60
22605;BME280;11469;49.024;8.246;2023-05-25T08:01:13;101002.31;;;15.14;60.71
22605;BME280;11469;49.024;8.246;2023-05-25T08:03:40;101002.97;;;15.30;59.73
22605;BME280;11469;49.024;8.246;2023-05-25T08:06:06;101003.66;;;15.46;59.78
22605;BME280;11469;49.024;8.246;2023-05-25T08:08:31;100998.19;;;15.57;59.16
22605;BME280;11469;49.024;8.246;2023-05-25T08:10:57;101008.91;;;15.74;58.72
22605;BME280;11469;49.024;8.246;2023-05-25T08:13:22;100999.63;;;15.74;58.79
22605;BME280;11469;49.024;8.246;2023-05-25T08:15:47;101001.69;;;15.50;59.03
22605;BME280;11469;49.024;8.246;2023-05-25T08:18:14;101002.34;;;15.67;58.53
22605;BME280;11469;49.024;8.246;2023-05-25T08:20:39;101007.47;;;15.87;57.99
22605;BME280;11469;49.024;8.246;2023-05-25T08:23:05;100998.91;;;16.14;58.05
22605;BME280;11469;49.024;8.246;2023-05-25T08:25:30;101009.78;;;16.42;57.84
22605;BME280;11469;49.024;8.246;2023-05-25T08:27:56;101001.13;;;16.27;57.32
22605;BME280;11469;49.024;8.246;2023-05-25T08:30:21;101012.28;;;16.50;56.96
22605;BME280;11469;49.024;8.246;2023-05-25T08:32:47;100999.22;;;16.76;56.33
22605;BME280;11469;49.024;8.246;2023-05-25T08:35:13;101011.22;;;16.29;57.39
22605;BME280;11469;49.024;8.246;2023-05-25T08:37:38;101006.06;;;16.01;56.81
22605;BME280;11469;49.024;8.246;2023-05-25T08:40:06;101008.56;;;16.43;57.35
22605;BME280;11469;49.024;8.246;2023-05-25T08:42:32;101015.72;;;16.67;56.76
22605;BME280;11469;49.024;8.246;2023-05-25T08:44:58;101013.94;;;16.55;56.68
22605;BME280;11469;49.024;8.246;2023-05-25T08:47:23;101009.69;;;16.72;56.88
22605;BME280;11469;49.024;8.246;2023-05-25T08:49:52;101007.75;;;16.79;56.37
22605;BME280;11469;49.024;8.246;2023-05-25T08:52:25;101009.34;;;16.77;55.46
22605;BME280;11469;49.024;8.246;2023-05-25T08:54:53;101009.44;;;16.84;56.15
22605;BME280;11469;49.024;8.246;2023-05-25T08:57:28;100998.16;;;16.91;56.00
22605;BME280;11469;49.024;8.246;2023-05-25T09:00:05;100998.59;;;16.93;55.10
22605;BME280;11469;49.024;8.246;2023-05-25T09:02:40;100996.78;;;17.22;55.63
22605;BME280;11469;49.024;8.246;2023-05-25T09:05:08;101002.25;;;17.48;55.11
22605;BME280;11469;49.024;8.246;2023-05-25T09:07:33;101004.53;;;17.87;55.19
22605;BME280;11469;49.024;8.246;2023-05-25T09:09:59;101002.91;;;17.86;54.13
22605;BME280;11469;49.024;8.246;2023-05-25T09:12:28;101006.94;;;17.81;53.58
22605;BME280;11469;49.024;8.246;2023-05-25T09:14:56;101010.91;;;17.70;55.01
22605;BME280;11469;49.024;8.246;2023-05-25T09:17:21;101010.16;;;17.80;54.24
22605;BME280;11469;49.024;8.246;2023-05-25T09:19:48;100994.44;;;17.97;54.17
22605;BME280;11469;49.024;8.246;2023-05-25T09:22:14;100998.09;;;17.97;53.12
22605;BME280;11469;49.024;8.246;2023-05-25T09:24:40;100998.94;;;18.08;53.15
22605;BME280;11469;49.024;8.246;2023-05-25T09:27:19;101003.84;;;18.18;54.07
22605;BME280;11469;49.024;8.246;2023-05-25T09:29:47;101003.91;;;18.29;52.99
22605;BME280;11469;49.024;8.246;2023-05-25T09:32:13;100993.34;;;18.22;53.98
22605;BME280;11469;49.024;8.246;2023-05-25T09:34:38;101001.09;;;18.43;53.53
22605;BME280;11469;49.024;8.246;2023-05-25T09:37:11;101007.19;;;18.42;52.55
22605;BME280;11469;49.024;8.246;2023-05-25T09:39:41;101001.09;;;18.33;52.76
22605;BME280;11469;49.024;8.246;2023-05-25T09:42:07;101001.19;;;18.61;52.92
22605;BME280;11469;49.024;8.246;2023-05-25T09:44:32;100994.31;;;18.90;51.82
22605;BME280;11469;49.024;8.246;2023-05-25T09:46:58;101003.97;;;18.54;51.81
22605;BME280;11469;49.024;8.246;2023-05-25T09:49:23;101006.81;;;18.57;51.74
22605;BME280;11469;49.024;8.246;2023-05-25T09:51:50;100992.25;;;18.63;50.77
22605;BME280;11469;49.024;8.246;2023-05-25T09:54:16;100983.78;;;18.80;49.73
22605;BME280;11469;49.024;8.246;2023-05-25T09:56:42;101001.22;;;18.79;51.70
22605;BME280;11469;49.024;8.246;2023-05-25T09:59:08;100993.91;;;18.99;51.06
22605;BME280;11469;49.024;8.246;2023-05-25T10:01:33;100989.84;;;19.07;51.13
22605;BME280;11469;49.024;8.246;2023-05-25T10:04:00;100994.75;;;19.21;50.92
22605;BME280;11469;49.024;8.246;2023-05-25T10:06:26;100990.28;;;19.31;49.88
22605;BME280;11469;49.024;8.246;2023-05-25T10:08:53;100992.25;;;19.62;49.80
22605;BME280;11469;49.024;8.246;2023-05-25T10:11:20;100993.09;;;19.55;50.20
22605;BME280;11469;49.024;8.246;2023-05-25T10:13:47;101000.38;;;19.42;49.84
22605;BME280;11469;49.024;8.246;2023-05-25T10:16:15;100996.34;;;19.58;49.37
22605;BME280;11469;49.024;8.246;2023-05-25T10:18:51;100996.75;;;19.52;49.48
22605;BME280;11469;49.024;8.246;2023-05-25T10:21:19;101001.59;;;19.45;49.62
22605;BME280;11469;49.024;8.246;2023-05-25T10:23:49;100983.34;;;19.53;50.08
22605;BME280;11469;49.024;8.246;2023-05-25T10:26:23;100995.50;;;19.75;49.67
22605;BME280;11469;49.024;8.246;2023-05-25T10:28:50;100995.91;;;19.77;49.73
22605;BME280;11469;49.024;8.246;2023-05-25T10:31:20;101000.81;;;19.59;49.05
22605;BME280;11469;49.024;8.246;2023-05-25T10:33:45;101004.84;;;19.68;49.21
22605;BME280;11469;49.024;8.246;2023-05-25T10:36:11;100992.97;;;19.91;49.11
22605;BME280;11469;49.024;8.246;2023-05-25T10:38:41;100993.06;;;19.77;47.69
22605;BME280;11469;49.024;8.246;2023-05-25T10:41:09;100981.66;;;19.84;48.12
22605;BME280;11469;49.024;8.246;2023-05-25T10:43:36;100984.44;;;19.95;47.91
22605;BME280;11469;49.024;8.246;2023-05-25T10:46:04;100989.22;;;20.23;48.19
22605;BME280;11469;49.024;8.246;2023-05-25T10:48:37;100983.97;;;20.10;47.76
22605;BME280;11469;49.024;8.246;2023-05-25T10:51:03;100996.44;;;20.41;47.33
22605;BME280;11469;49.024;8.246;2023-05-25T10:53:28;100975.44;;;20.14;46.97
22605;BME280;11469;49.024;8.246;2023-05-25T10:58:22;100986.72;;;20.32;46.55
22605;BME280;11469;49.024;8.246;2023-05-25T11:01:07;100979.47;;;20.20;47.41
22605;BME280;11469;49.024;8.246;2023-05-25T11:06:08;100988.97;;;20.69;46.64
22605;BME280;11469;49.024;8.246;2023-05-25T11:08:54;100986.59;;;20.60;47.00
22605;BME280;11469;49.024;8.246;2023-05-25T11:11:20;100990.28;;;20.53;46.02
22605;BME280;11469;49.024;8.246;2023-05-25T11:13:48;100989.31;;;20.78;46.28
22605;BME280;11469;49.024;8.246;2023-05-25T11:18:57;100992.97;;;20.78;46.08
22605;BME280;11469;49.024;8.246;2023-05-25T11:26:27;100983.88;;;20.98;45.76
22605;BME280;11469;49.024;8.246;2023-05-25T11:28:54;100982.56;;;21.09;45.12
22605;BME280;11469;49.024;8.246;2023-05-25T11:31:31;100974.81;;;21.10;45.16
22605;BME280;11469;49.024;8.246;2023-05-25T11:33:58;100969.97;;;21.03;45.11
22605;BME280;11469;49.024;8.246;2023-05-25T11:36:26;100964.59;;;21.16;45.02
22605;BME280;11469;49.024;8.246;2023-05-25T11:38:55;100974.88;;;21.47;45.44
22605;BME280;11469;49.024;8.246;2023-05-25T11:41:22;100964.00;;;21.35;45.20
22605;BME280;11469;49.024;8.246;2023-05-25T11:43:48;100971.88;;;21.20;44.55
22605;BME280;11469;49.024;8.246;2023-05-25T11:46:18;100971.88;;;21.24;45.02
22605;BME280;11469;49.024;8.246;2023-05-25T11:48:51;100964.03;;;21.32;44.95
22605;BME280;11469;49.024;8.246;2023-05-25T11:51:24;100962.78;;;21.36;43.87
22605;BME280;11469;49.024;8.246;2023-05-25T11:53:50;100961.69;;;21.27;44.27
22605;BME280;11469;49.024;8.246;2023-05-25T11:56:17;100960.63;;;21.03;44.92
22605;BME280;11469;49.024;8.246;2023-05-25T11:58:44;100964.56;;;21.23;43.96
22605;BME280;11469;49.024;8.246;2023-05-25T12:01:22;100965.31;;;21.27;44.68
22605;BME280;11469;49.024;8.246;2023-05-25T12:03:49;100958.72;;;21.34;44.98
22605;BME280;11469;49.024;8.246;2023-05-25T12:06:30;100955.28;;;21.53;44.55
22605;BME280;11469;49.024;8.246;2023-05-25T12:08:59;100961.19;;;21.32;45.06
22605;BME280;11469;49.024;8.246;2023-05-25T12:11:35;100957.97;;;21.30;43.81
22605;BME280;11469;49.024;8.246;2023-05-25T12:14:09;100962.13;;;21.63;44.38
22605;BME280;11469;49.024;8.246;2023-05-25T12:16:36;100958.94;;;21.09;44.02
22605;BME280;11469;49.024;8.246;2023-05-25T12:19:06;100952.97;;;20.93;45.38
22605;BME280;11469;49.024;8.246;2023-05-25T12:21:32;100952.44;;;21.08;45.23
22605;BME280;11469;49.024;8.246;2023-05-25T12:23:58;100956.97;;;21.47;44.23
22605;BME280;11469;49.024;8.246;2023-05-25T12:26:25;100951.56;;;21.60;44.28
22605;BME280;11469;49.024;8.246;2023-05-25T12:29:01;100944.88;;;22.07;43.65
22605;BME280;11469;49.024;8.246;2023-05-25T12:31:30;100949.06;;;21.96;43.94
22605;BME280;11469;49.024;8.246;2023-05-25T12:34:15;100951.69;;;21.45;43.95
22605;BME280;11469;49.024;8.246;2023-05-25T12:39:10;100947.94;;;21.90;43.54
22605;BME280;11469;49.024;8.246;2023-05-25T12:41:52;100961.47;;;21.82;42.61
22605;BME280;11469;49.024;8.246;2023-05-25T12:44:19;100960.22;;;21.83;43.17
22605;BME280;11469;49.024;8.246;2023-05-25T12:46:49;100947.03;;;21.62;43.11
22605;BME280;11469;49.024;8.246;2023-05-25T12:49:25;100953.50;;;22.04;43.48
22605;BME280;11469;49.024;8.246;2023-05-25T12:51:51;100943.19;;;22.40;43.07
22605;BME280;11469;49.024;8.246;2023-05-25T12:54:32;100944.31;;;22.46;42.51
22605;BME280;11469;49.024;8.246;2023-05-25T12:56:58;100946.31;;;22.49;43.21
22605;BME280;11469;49.024;8.246;2023-05-25T12:59:24;100947.63;;;22.45;42.96
22605;BME280;11469;49.024;8.246;2023-05-25T13:01:49;100940.16;;;22.24;42.57
22605;BME280;11469;49.024;8.246;2023-05-25T13:04:15;100944.56;;;22.59;42.64
22605;BME280;11469;49.024;8.246;2023-05-25T13:06:40;100941.47;;;22.46;43.04
22605;BME280;11469;49.024;8.246;2023-05-25T13:09:06;100950.28;;;22.29;43.92
22605;BME280;11469;49.024;8.246;2023-05-25T13:11:31;100940.25;;;22.47;43.33